createdAt,value
2022-10-11T00:01:25.325Z,77.45
2022-10-11T00:06:28.009Z,77.53
2022-10-11T00:11:31.106Z,77.50
2022-10-11T00:16:33.969Z,77.95
2022-10-11T00:21:36.861Z,77.89
2022-10-11T00:26:43.200Z,77.57
2022-10-11T00:31:48.545Z,78.07
2022-10-11T00:36:51.179Z,78.42
2022-10-11T00:41:54.176Z,78.18
2022-10-11T00:47:09.408Z,78.23
2022-10-11T00:52:42.170Z,78.39
2022-10-11T00:57:47.588Z,78.95
2022-10-11T01:02:50.531Z,78.37
2022-10-11T01:07:53.218Z,78.51
2022-10-11T01:13:37.775Z,79.32
2022-10-11T01:18:54.142Z,79.00
2022-10-11T01:25:00.656Z,78.68
2022-10-11T01:30:05.455Z,79.28
2022-10-11T01:35:24.227Z,79.34
2022-10-11T01:40:34.037Z,79.22
2022-10-11T01:45:37.277Z,79.36
2022-10-11T01:50:45.529Z,79.58
2022-10-11T01:55:56.331Z,79.85
2022-10-11T02:01:12.157Z,80.16
2022-10-11T02:06:33.008Z,79.94
2022-10-11T02:11:35.818Z,80.09
2022-10-11T02:17:08.937Z,80.25
2022-10-11T02:22:22.831Z,80.17
2022-10-11T02:27:28.052Z,80.36
2022-10-11T02:32:30.715Z,80.27
2022-10-11T02:38:05.537Z,80.30
2022-10-11T02:43:18.873Z,80.33
2022-10-11T02:48:21.668Z,80.35
2022-10-11T02:53:25.081Z,80.15
2022-10-11T02:58:28.100Z,80.44
2022-10-11T03:03:30.725Z,80.14
2022-10-11T03:08:33.678Z,80.11
2022-10-11T03:13:36.314Z,80.25
2022-10-11T03:18:39.109Z,80.33
2022-10-11T03:23:42.606Z,80.14
2022-10-11T03:28:45.387Z,80.64
2022-10-11T03:33:48.173Z,80.58
2022-10-11T03:38:50.805Z,80.87
2022-10-11T03:43:53.437Z,80.74
2022-10-11T03:48:56.179Z,80.44
2022-10-11T03:53:58.929Z,80.91
2022-10-11T03:59:02.348Z,81.11
2022-10-11T04:04:05.510Z,80.65
2022-10-11T04:09:08.241Z,81.08
2022-10-11T04:14:11.050Z,80.97
2022-10-11T04:19:13.780Z,81.18
2022-10-11T04:24:16.475Z,80.89
2022-10-11T04:29:19.219Z,81.36
2022-10-11T04:34:21.947Z,80.98
2022-10-11T04:39:24.858Z,81.55
2022-10-11T04:44:27.478Z,80.87
2022-10-11T04:49:30.171Z,80.85
2022-10-11T04:54:32.770Z,81.02
2022-10-11T04:59:35.459Z,81.14
2022-10-11T05:04:38.060Z,81.10
2022-10-11T05:09:40.745Z,80.90
2022-10-11T05:14:43.524Z,81.00
2022-10-11T05:19:46.241Z,81.36
2022-10-11T05:24:48.914Z,81.21
2022-10-11T05:29:51.604Z,81.23
2022-10-11T05:34:54.284Z,81.47
2022-10-11T05:39:56.950Z,81.51
2022-10-11T05:44:59.585Z,81.40
2022-10-11T05:50:02.399Z,81.53
2022-10-11T05:55:06.331Z,81.73
2022-10-11T06:00:10.458Z,82.13
2022-10-11T06:05:13.220Z,81.87
2022-10-11T06:10:15.942Z,81.83
2022-10-11T06:15:20.223Z,82.18
2022-10-11T06:20:23.261Z,82.48
2022-10-11T06:25:25.909Z,83.08
2022-10-11T06:30:28.749Z,83.21
2022-10-11T06:35:31.529Z,83.57
2022-10-11T06:40:34.302Z,84.23
2022-10-11T06:45:37.027Z,86.30
2022-10-11T06:50:58.692Z,86.18
2022-10-11T06:56:07.637Z,86.37
2022-10-11T07:01:13.357Z,85.94
2022-10-11T07:06:18.815Z,85.24
2022-10-11T07:11:23.827Z,84.08
2022-10-11T07:16:27.311Z,83.03
2022-10-11T07:21:30.768Z,82.34
2022-10-11T07:26:38.776Z,81.96
2022-10-11T07:31:43.571Z,80.75
2022-10-11T07:36:47.115Z,80.23
2022-10-11T07:41:49.803Z,80.08
2022-10-11T07:46:52.460Z,79.55
2022-10-11T07:51:56.385Z,78.94
2022-10-11T07:56:59.147Z,79.09
2022-10-11T08:02:02.293Z,78.84
2022-10-11T08:07:05.178Z,78.81
2022-10-11T08:12:07.946Z,78.23
2022-10-11T08:17:11.301Z,77.57
2022-10-11T08:22:14.073Z,77.01
2022-10-11T08:27:16.676Z,76.19
2022-10-11T08:32:19.301Z,76.11
2022-10-11T08:37:22.025Z,74.98
2022-10-11T08:42:46.048Z,74.37
2022-10-11T08:47:48.803Z,74.23
2022-10-11T08:53:04.583Z,73.15
2022-10-11T08:58:08.414Z,72.72
2022-10-11T09:03:35.002Z,72.62
2022-10-11T09:08:56.501Z,72.50
2022-10-11T09:14:21.916Z,72.06
2022-10-11T09:19:41.300Z,71.88
2022-10-11T09:25:05.787Z,71.76
2022-10-11T09:30:17.980Z,70.92
2022-10-11T09:35:22.032Z,70.63
2022-10-11T09:40:46.714Z,70.53
2022-10-11T09:45:49.862Z,70.53
2022-10-11T09:50:52.812Z,70.05
2022-10-11T09:56:02.738Z,69.58
2022-10-11T10:01:14.143Z,69.47
2022-10-11T10:06:24.723Z,69.68
2022-10-11T10:11:27.435Z,69.11
2022-10-11T10:16:32.248Z,68.39
2022-10-11T10:21:46.555Z,68.09
2022-10-11T10:27:17.138Z,67.50
2022-10-11T10:32:27.836Z,67.82
2022-10-11T10:38:15.652Z,67.87
2022-10-11T10:43:21.629Z,67.89
2022-10-11T10:49:11.628Z,66.25
2022-10-11T10:54:39.020Z,63.38
2022-10-11T11:00:04.808Z,62.63
2022-10-11T11:05:23.545Z,61.55
2022-10-11T11:10:44.014Z,60.19
2022-10-11T11:16:18.676Z,58.74
2022-10-11T11:21:43.917Z,58.44
2022-10-11T11:27:03.389Z,58.23
2022-10-11T11:32:17.508Z,57.03
2022-10-11T11:37:28.760Z,55.93
2022-10-11T11:42:39.284Z,56.66
2022-10-11T11:47:43.297Z,57.38
2022-10-11T11:52:47.733Z,56.57
2022-10-11T11:58:24.938Z,54.49
2022-10-11T12:03:31.986Z,53.39
2022-10-11T12:08:34.654Z,52.06
2022-10-11T12:13:38.138Z,50.29
2022-10-11T12:18:56.325Z,48.82
2022-10-11T12:24:20.772Z,49.63
2022-10-11T12:29:42.917Z,49.45
2022-10-11T12:34:45.580Z,48.48
2022-10-11T12:40:00.581Z,48.02
2022-10-11T12:45:13.018Z,48.18
2022-10-11T12:50:39.681Z,48.64
2022-10-11T12:55:48.452Z,49.62
2022-10-11T13:00:51.830Z,51.48
2022-10-11T13:06:00.456Z,52.38
2022-10-11T13:11:07.478Z,52.96
2022-10-11T13:16:18.373Z,53.36
2022-10-11T13:21:31.950Z,53.29
2022-10-11T13:26:34.856Z,53.15
2022-10-11T13:31:40.576Z,53.18
2022-10-11T13:36:43.386Z,53.74
2022-10-11T13:41:46.184Z,52.59
2022-10-11T13:46:48.969Z,52.86
2022-10-11T13:52:02.548Z,51.51
2022-10-11T13:57:05.226Z,51.63
2022-10-11T14:02:20.227Z,52.31
2022-10-11T14:07:27.489Z,51.66
2022-10-11T14:12:35.482Z,51.74
2022-10-11T14:17:41.833Z,50.55
2022-10-11T14:22:44.584Z,45.56
2022-10-11T14:27:49.950Z,42.10
2022-10-11T14:32:53.930Z,39.25
2022-10-11T14:37:56.629Z,41.46
2022-10-11T14:42:59.466Z,43.55
2022-10-11T14:48:03.523Z,45.65
2022-10-11T14:53:07.667Z,47.11
2022-10-11T14:58:11.976Z,47.07
2022-10-11T15:03:14.913Z,48.55
2022-10-11T15:08:17.976Z,49.49
2022-10-11T15:13:22.630Z,50.53
2022-10-11T15:18:25.335Z,51.24
2022-10-11T15:23:28.078Z,52.14
2022-10-11T15:28:32.268Z,52.77
2022-10-11T15:33:35.006Z,53.59
2022-10-11T15:38:37.754Z,53.86
2022-10-11T15:43:40.680Z,54.50
2022-10-11T15:48:43.915Z,55.53
2022-10-11T15:53:46.717Z,56.09
2022-10-11T15:58:49.408Z,56.76
2022-10-11T16:03:52.174Z,57.12
2022-10-11T16:08:54.870Z,58.01
2022-10-11T16:13:57.517Z,58.58
2022-10-11T16:19:00.141Z,59.11
2022-10-11T16:24:02.972Z,59.92
2022-10-11T16:29:05.773Z,60.01
2022-10-11T16:34:08.448Z,60.86
2022-10-11T16:39:16.458Z,60.98
2022-10-11T16:44:21.681Z,61.61
2022-10-11T16:49:27.021Z,62.03
2022-10-11T16:54:30.481Z,62.74
2022-10-11T16:59:33.310Z,62.88
2022-10-11T17:04:35.938Z,63.62
2022-10-11T17:09:44.298Z,64.02
2022-10-11T17:14:47.197Z,64.04
2022-10-11T17:19:50.179Z,64.55
2022-10-11T17:24:52.938Z,64.68
2022-10-11T17:29:55.768Z,64.91
2022-10-11T17:35:00.737Z,65.05
2022-10-11T17:40:04.740Z,65.18
2022-10-11T17:45:07.838Z,65.11
2022-10-11T17:50:10.637Z,65.38
2022-10-11T17:55:13.706Z,65.58
2022-10-11T18:00:16.768Z,65.69
2022-10-11T18:05:19.575Z,66.13
2022-10-11T18:10:22.456Z,66.78
2022-10-11T18:15:31.402Z,67.29
2022-10-11T18:20:34.218Z,67.85
2022-10-11T18:25:36.985Z,68.67
2022-10-11T18:30:44.186Z,68.76
2022-10-11T18:35:46.934Z,68.99
2022-10-11T18:40:49.531Z,69.98
2022-10-11T18:45:52.286Z,70.36
2022-10-11T18:51:06.004Z,70.35
2022-10-11T18:56:10.461Z,70.86
2022-10-11T19:01:15.974Z,71.54
2022-10-11T19:06:21.927Z,71.55
2022-10-11T19:11:25.568Z,71.84
2022-10-11T19:16:32.249Z,71.81
2022-10-11T19:21:35.090Z,72.62
2022-10-11T19:26:39.607Z,72.36
2022-10-11T19:31:48.524Z,72.45
2022-10-11T19:36:53.371Z,72.73
2022-10-11T19:41:56.411Z,72.44
2022-10-11T19:47:04.246Z,72.64
2022-10-11T19:52:09.444Z,73.18
2022-10-11T19:57:51.267Z,72.92
2022-10-11T20:02:54.133Z,73.48
2022-10-11T20:07:57.105Z,73.81
2022-10-11T20:13:03.285Z,73.84
2022-10-11T20:18:05.993Z,74.24
2022-10-11T20:23:18.170Z,74.28
2022-10-11T20:28:21.441Z,74.58
2022-10-11T20:33:25.130Z,74.71
2022-10-11T20:38:29.635Z,74.66
2022-10-11T20:43:33.724Z,75.02
2022-10-11T20:48:37.329Z,75.31
2022-10-11T21:01:43.118Z,75.27
2022-10-11T21:06:48.308Z,75.58
2022-10-11T21:21:21.971Z,75.93
2022-10-11T21:50:15.817Z,76.43
2022-10-11T22:13:32.195Z,77.62
2022-10-11T22:18:36.220Z,77.31
2022-10-11T22:23:40.393Z,77.64
2022-10-11T22:36:33.883Z,78.11
2022-10-11T22:54:23.180Z,78.10
2022-10-11T23:11:44.197Z,78.71
2022-10-11T23:23:57.063Z,78.40
2022-10-11T23:29:39.228Z,78.84
2022-10-11T23:47:27.269Z,78.20
2022-10-11T23:59:05.136Z,77.78
